Time;durP1;ratioP1;P1;durP2;ratioP2;P2;SDS_P1;SDS_P2;PMS_P1;PMS_P2;Temp;Humidity;BMP_temperature;BMP_pressure;BME280_temperature;BME280_humidity;BME280_pressure;Samples;Min_cycle;Max_cycle;Signal;HPM_P1;HPM_P2
2022/07/22 00:02:21;;;;;;;9.50;2.13;;;16.00;99.90;;;;;;5045212;28;20072;-71
2022/07/22 00:04:47;;;;;;;18.00;2.72;;;16.00;99.90;;;;;;5049399;28;20111;-71
2022/07/22 00:07:12;;;;;;;8.52;2.47;;;16.00;99.90;;;;;;5046928;28;20060;-71
2022/07/22 00:09:38;;;;;;;9.55;2.35;;;16.00;99.90;;;;;;5047594;28;20078;-72
2022/07/22 00:12:04;;;;;;;8.85;2.10;;;16.00;99.90;;;;;;5030810;28;20134;-71
2022/07/22 00:14:30;;;;;;;8.93;2.10;;;16.00;99.90;;;;;;5028736;28;20140;-72
2022/07/22 00:16:56;;;;;;;7.47;2.00;;;16.00;99.90;;;;;;5027573;28;20048;-71
2022/07/22 00:19:24;;;;;;;6.95;1.80;;;16.00;99.90;;;;;;5025790;28;20126;-72
2022/07/22 00:21:50;;;;;;;6.28;2.03;;;16.00;99.90;;;;;;5049349;28;20073;-72
2022/07/22 00:24:15;;;;;;;7.50;2.25;;;16.00;99.90;;;;;;5048565;28;20048;-71
2022/07/22 00:26:41;;;;;;;7.28;1.88;;;16.00;99.90;;;;;;5028671;28;20044;-72
2022/07/22 00:29:06;;;;;;;7.25;2.15;;;16.00;99.90;;;;;;5038036;28;20037;-72
2022/07/22 00:31:32;;;;;;;6.30;2.05;;;16.00;99.90;;;;;;5028803;28;20156;-72
2022/07/22 00:34:01;;;;;;;8.63;2.28;;;16.00;99.90;;;;;;5028284;28;20053;-72
2022/07/22 00:36:28;;;;;;;5.82;1.80;;;15.90;99.90;;;;;;5028882;28;20128;-71
2022/07/22 00:38:53;;;;;;;7.63;1.55;;;16.00;99.90;;;;;;5026643;28;20046;-72
2022/07/22 00:41:19;;;;;;;11.50;1.98;;;16.00;99.90;;;;;;5027865;28;20043;-72
2022/07/22 00:43:52;;;;;;;9.23;2.13;;;16.00;99.90;;;;;;5046741;28;20459;-72
2022/07/22 00:46:17;;;;;;;9.02;1.88;;;16.00;99.90;;;;;;5023917;28;20478;-72
2022/07/22 00:48:43;;;;;;;6.88;1.67;;;16.00;99.90;;;;;;5024881;28;20044;-72
2022/07/22 00:51:09;;;;;;;6.65;1.80;;;16.00;99.90;;;;;;5048227;28;20056;-72
2022/07/22 00:53:35;;;;;;;9.25;2.10;;;16.00;99.90;;;;;;5025678;28;20052;-72
2022/07/22 00:56:03;;;;;;;7.35;1.77;;;16.00;99.90;;;;;;5042381;28;20080;-73
2022/07/22 00:58:29;;;;;;;6.13;2.00;;;16.00;99.90;;;;;;5045217;28;20079;-72
2022/07/22 01:00:55;;;;;;;6.15;1.80;;;16.00;99.90;;;;;;5047229;28;20044;-72
2022/07/22 01:03:21;;;;;;;13.23;2.30;;;15.90;99.90;;;;;;5043077;28;20318;-72
2022/07/22 01:05:46;;;;;;;7.80;2.08;;;16.00;99.90;;;;;;5044498;28;20484;-72
2022/07/22 01:08:13;;;;;;;5.50;1.83;;;15.90;99.90;;;;;;5048286;28;20033;-72
2022/07/22 01:10:38;;;;;;;12.23;2.58;;;15.90;99.90;;;;;;5026844;28;20382;-72
2022/07/22 01:13:04;;;;;;;11.45;2.20;;;15.90;99.90;;;;;;5045114;28;20091;-72
2022/07/22 01:15:30;;;;;;;8.98;2.33;;;15.90;99.90;;;;;;5047096;28;20332;-72
2022/07/22 01:17:55;;;;;;;9.07;2.13;;;15.90;99.90;;;;;;5024288;28;20104;-72
2022/07/22 01:20:21;;;;;;;10.63;2.33;;;15.90;99.90;;;;;;5022142;28;20054;-72
2022/07/22 01:22:47;;;;;;;8.63;2.20;;;15.90;99.90;;;;;;5046676;28;20041;-72
2022/07/22 01:25:12;;;;;;;8.88;2.40;;;15.90;99.90;;;;;;5028858;28;20046;-70
2022/07/22 01:27:38;;;;;;;11.93;2.58;;;15.90;99.90;;;;;;5044133;28;20049;-72
2022/07/22 01:30:05;;;;;;;11.68;2.95;;;15.90;99.90;;;;;;5046934;28;20124;-71
2022/07/22 01:32:31;;;;;;;12.07;2.67;;;15.90;99.90;;;;;;5046850;28;20211;-72
2022/07/22 01:34:57;;;;;;;5.35;2.05;;;15.90;99.90;;;;;;5040899;28;20622;-72
2022/07/22 01:37:22;;;;;;;9.60;2.72;;;15.90;99.90;;;;;;5045844;28;20041;-72
2022/07/22 01:39:49;;;;;;;6.88;2.35;;;15.90;99.90;;;;;;5047266;28;20059;-73
2022/07/22 01:42:14;;;;;;;6.45;2.53;;;15.90;99.90;;;;;;5046639;28;20040;-72
2022/07/22 01:44:40;;;;;;;11.70;2.38;;;15.90;99.90;;;;;;5027555;28;20432;-73
2022/07/22 01:47:07;;;;;;;7.45;2.22;;;15.90;99.90;;;;;;5024194;28;20370;-72
2022/07/22 01:49:34;;;;;;;6.93;2.08;;;15.80;99.90;;;;;;5040625;28;20404;-72
2022/07/22 01:52:00;;;;;;;7.35;2.13;;;15.90;99.90;;;;;;5029824;28;20053;-72
2022/07/22 01:54:26;;;;;;;8.60;2.75;;;15.80;99.90;;;;;;5027475;28;20072;-73
2022/07/22 01:56:51;;;;;;;8.63;2.10;;;15.80;99.90;;;;;;5026063;28;20409;-72
2022/07/22 01:59:17;;;;;;;10.27;2.20;;;15.80;99.90;;;;;;5035944;28;20037;-72
2022/07/22 02:01:43;;;;;;;11.30;2.88;;;15.80;99.90;;;;;;5028029;28;20126;-72
2022/07/22 02:04:09;;;;;;;5.60;1.90;;;15.80;99.90;;;;;;5020150;28;20045;-72
2022/07/22 02:06:34;;;;;;;8.35;2.65;;;15.80;99.90;;;;;;5035953;28;20057;-72
2022/07/22 02:09:00;;;;;;;9.48;2.10;;;15.80;99.90;;;;;;5046453;28;20041;-72
2022/07/22 02:11:25;;;;;;;8.80;1.92;;;15.80;99.90;;;;;;5027825;28;20048;-72
2022/07/22 02:13:51;;;;;;;6.72;2.38;;;15.80;99.90;;;;;;5043742;28;20053;-72
2022/07/22 02:16:17;;;;;;;9.23;2.83;;;15.80;99.90;;;;;;5039076;28;20473;-72
2022/07/22 02:18:42;;;;;;;7.28;2.40;;;15.80;99.90;;;;;;5037857;28;20122;-72
2022/07/22 02:21:08;;;;;;;11.48;2.55;;;15.80;99.90;;;;;;5039162;28;20077;-72
2022/07/22 02:23:33;;;;;;;13.13;3.72;;;15.80;99.90;;;;;;5023809;28;20125;-73
2022/07/22 02:25:59;;;;;;;5.30;1.85;;;15.80;99.90;;;;;;5024417;28;20124;-72
2022/07/22 02:28:25;;;;;;;5.70;2.13;;;15.80;99.90;;;;;;5023996;28;20504;-72
2022/07/22 02:30:50;;;;;;;10.15;2.88;;;15.80;99.90;;;;;;5038994;28;20488;-72
2022/07/22 02:33:16;;;;;;;7.53;2.03;;;15.70;99.90;;;;;;5021298;28;20549;-72
2022/07/22 02:35:42;;;;;;;7.13;2.35;;;15.70;99.90;;;;;;5020119;28;20041;-72
2022/07/22 02:38:07;;;;;;;4.82;1.90;;;15.70;99.90;;;;;;5024946;28;20110;-72
2022/07/22 02:40:33;;;;;;;10.25;2.28;;;15.70;99.90;;;;;;5026590;28;20049;-72
2022/07/22 02:42:59;;;;;;;6.78;1.90;;;15.70;99.90;;;;;;5027191;28;20081;-72
2022/07/22 02:45:25;;;;;;;6.88;2.25;;;15.70;99.90;;;;;;5044156;28;20045;-72
2022/07/22 02:47:54;;;;;;;7.13;2.08;;;15.70;99.90;;;;;;5023720;28;20061;-73
2022/07/22 02:50:21;;;;;;;14.25;2.95;;;15.70;99.90;;;;;;5042757;28;20068;-73
2022/07/22 02:52:47;;;;;;;7.05;2.13;;;15.70;99.90;;;;;;5044493;28;20068;-73
2022/07/22 02:55:13;;;;;;;7.35;2.30;;;15.70;99.90;;;;;;5019485;28;20045;-73
2022/07/22 02:57:38;;;;;;;7.85;2.28;;;15.70;99.90;;;;;;5044051;28;20049;-73
2022/07/22 03:00:08;;;;;;;10.13;2.38;;;15.70;99.90;;;;;;5044408;28;20428;-72
2022/07/22 03:02:34;;;;;;;7.47;2.13;;;15.70;99.90;;;;;;5046033;28;20056;-73
2022/07/22 03:04:59;;;;;;;11.52;2.15;;;15.70;99.90;;;;;;5020430;28;20046;-73
2022/07/22 03:07:25;;;;;;;7.68;2.08;;;15.70;99.90;;;;;;5028420;28;20037;-72
2022/07/22 03:09:50;;;;;;;9.10;2.30;;;15.70;99.90;;;;;;5025896;28;20154;-73
2022/07/22 03:12:16;;;;;;;4.00;1.60;;;15.70;99.90;;;;;;5040130;28;20048;-73
2022/07/22 03:14:42;;;;;;;13.82;2.75;;;15.70;99.90;;;;;;5032577;28;20049;-73
2022/07/22 03:17:07;;;;;;;12.32;2.58;;;15.70;99.90;;;;;;5005492;28;20053;-73
2022/07/22 03:19:33;;;;;;;8.23;2.35;;;15.70;99.90;;;;;;5023019;28;20037;-72
2022/07/22 03:21:58;;;;;;;7.50;2.25;;;15.70;99.90;;;;;;5024333;28;20068;-73
2022/07/22 03:24:24;;;;;;;5.20;2.30;;;15.70;99.90;;;;;;5023201;28;20057;-73
2022/07/22 03:26:49;;;;;;;6.15;1.77;;;15.70;99.90;;;;;;5027069;28;20586;-72
2022/07/22 03:29:15;;;;;;;7.07;2.40;;;15.70;99.90;;;;;;5029124;28;20045;-73
2022/07/22 03:31:41;;;;;;;7.05;2.05;;;15.70;99.90;;;;;;5029632;28;20045;-73
2022/07/22 03:34:06;;;;;;;5.45;1.98;;;15.70;99.90;;;;;;5025298;28;20083;-72
2022/07/22 03:36:32;;;;;;;5.07;1.90;;;15.70;99.90;;;;;;5042055;28;20127;-73
2022/07/22 03:38:57;;;;;;;7.20;2.20;;;15.70;99.90;;;;;;5028852;28;20064;-73
2022/07/22 03:41:23;;;;;;;9.13;2.42;;;15.70;99.90;;;;;;5042650;28;20051;-73
2022/07/22 03:43:49;;;;;;;6.35;1.92;;;15.70;99.90;;;;;;5043992;28;20151;-70
2022/07/22 03:46:14;;;;;;;8.35;2.20;;;15.60;99.90;;;;;;5045768;28;20049;-70
2022/07/22 03:48:40;;;;;;;7.55;2.45;;;15.60;99.90;;;;;;5024676;28;20103;-70
2022/07/22 03:51:06;;;;;;;9.50;2.22;;;15.60;99.90;;;;;;5037181;28;20489;-70
2022/07/22 03:53:32;;;;;;;7.30;2.33;;;15.70;99.90;;;;;;5019244;28;20385;-72
2022/07/22 03:55:59;;;;;;;9.65;2.15;;;15.60;99.90;;;;;;5048446;28;20394;-72
2022/07/22 03:58:26;;;;;;;6.95;2.38;;;15.60;99.90;;;;;;5041669;28;20288;-72
2022/07/22 04:00:52;;;;;;;11.43;2.00;;;15.60;99.90;;;;;;5023364;28;20043;-72
2022/07/22 04:03:18;;;;;;;7.90;2.20;;;15.60;99.90;;;;;;5029284;28;20041;-72
2022/07/22 04:05:45;;;;;;;8.07;2.33;;;15.60;99.90;;;;;;5042119;28;20091;-72
2022/07/22 04:08:11;;;;;;;9.23;2.40;;;15.70;99.90;;;;;;5026390;28;20062;-72
2022/07/22 04:10:37;;;;;;;8.77;2.03;;;15.70;99.90;;;;;;5030271;28;20070;-72
2022/07/22 04:13:03;;;;;;;13.13;2.33;;;15.70;99.90;;;;;;5024510;28;20094;-72
2022/07/22 04:15:29;;;;;;;5.18;1.70;;;15.70;99.90;;;;;;5024190;28;20049;-72
2022/07/22 04:17:55;;;;;;;6.15;1.70;;;15.70;99.90;;;;;;5045050;28;20103;-72
2022/07/22 04:20:20;;;;;;;6.40;1.60;;;15.70;99.90;;;;;;5012318;28;20047;-72
2022/07/22 04:22:46;;;;;;;11.60;1.73;;;15.70;99.90;;;;;;5049262;28;20102;-72
2022/07/22 04:25:12;;;;;;;5.03;1.63;;;15.70;99.90;;;;;;5043669;28;20041;-72
2022/07/22 04:27:37;;;;;;;10.13;2.03;;;15.70;99.90;;;;;;5028733;28;20045;-72
2022/07/22 04:30:04;;;;;;;6.97;1.70;;;15.70;99.90;;;;;;5026420;28;20041;-71
2022/07/22 04:32:29;;;;;;;8.13;1.58;;;15.70;99.90;;;;;;5046680;28;20049;-72
2022/07/22 04:34:55;;;;;;;8.15;1.83;;;15.80;99.90;;;;;;5042865;28;20051;-72
2022/07/22 04:37:21;;;;;;;6.88;1.85;;;15.80;99.90;;;;;;5043739;28;20048;-73
2022/07/22 04:39:46;;;;;;;5.25;1.63;;;15.80;99.90;;;;;;5030357;28;20052;-72
2022/07/22 04:42:12;;;;;;;6.57;1.70;;;15.80;99.90;;;;;;5032836;28;20037;-72
2022/07/22 04:44:38;;;;;;;6.53;1.83;;;15.80;99.90;;;;;;5022836;28;20075;-72
2022/07/22 04:47:03;;;;;;;8.25;2.28;;;15.80;99.90;;;;;;5043150;28;20033;-72
2022/07/22 04:49:29;;;;;;;5.50;1.38;;;15.80;99.90;;;;;;5043531;28;20519;-72
2022/07/22 04:51:54;;;;;;;5.45;1.92;;;15.80;99.90;;;;;;5022215;28;20275;-72
2022/07/22 04:54:20;;;;;;;5.45;1.75;;;15.90;99.90;;;;;;5041951;28;22347;-73
2022/07/22 04:56:46;;;;;;;8.48;1.85;;;15.90;99.90;;;;;;5046074;28;20052;-72
2022/07/22 04:59:12;;;;;;;5.50;1.70;;;15.90;99.90;;;;;;5025929;28;20098;-71
2022/07/22 05:01:37;;;;;;;4.95;1.48;;;15.90;99.90;;;;;;5044658;28;20122;-72
2022/07/22 05:04:03;;;;;;;5.40;1.60;;;15.90;99.90;;;;;;5023559;28;20033;-72
2022/07/22 05:06:29;;;;;;;6.28;2.42;;;16.00;99.90;;;;;;5038036;28;20295;-73
2022/07/22 05:08:55;;;;;;;9.85;1.73;;;16.00;99.90;;;;;;5025629;28;20269;-72
2022/07/22 05:11:20;;;;;;;8.90;2.00;;;16.00;99.90;;;;;;5044155;28;20052;-72
2022/07/22 05:13:46;;;;;;;7.15;1.83;;;16.00;99.90;;;;;;5041164;28;20488;-72
2022/07/22 05:16:11;;;;;;;6.22;1.73;;;16.00;99.90;;;;;;5025422;28;20057;-72
2022/07/22 05:18:37;;;;;;;10.98;2.10;;;16.10;99.90;;;;;;5044296;28;20056;-72
2022/07/22 05:21:05;;;;;;;7.97;2.22;;;16.10;99.90;;;;;;5037247;28;20136;-72
2022/07/22 05:23:30;;;;;;;8.55;2.17;;;16.10;99.90;;;;;;5048424;28;20037;-72
2022/07/22 05:25:56;;;;;;;8.98;2.17;;;16.10;99.90;;;;;;5021826;28;20115;-72
2022/07/22 05:28:22;;;;;;;8.63;1.67;;;16.10;99.90;;;;;;5023921;28;20038;-72
2022/07/22 05:30:47;;;;;;;12.23;2.10;;;16.10;99.90;;;;;;5042052;28;20052;-71
2022/07/22 05:33:13;;;;;;;11.57;2.00;;;16.10;99.90;;;;;;5042560;28;20733;-71
2022/07/22 05:35:39;;;;;;;9.85;2.00;;;16.20;99.90;;;;;;5041959;28;20044;-73
2022/07/22 05:38:05;;;;;;;6.20;3.20;;;16.20;99.90;;;;;;5022939;28;20045;-72
2022/07/22 05:40:32;;;;;;;5.90;1.70;;;16.20;99.90;;;;;;5046455;28;20045;-72
2022/07/22 05:42:58;;;;;;;9.25;2.03;;;16.20;99.90;;;;;;5021702;28;20037;-72
2022/07/22 05:45:24;;;;;;;4.45;1.70;;;16.20;99.90;;;;;;5042159;28;20044;-72
2022/07/22 05:47:49;;;;;;;5.88;1.80;;;16.20;99.90;;;;;;5025043;28;20187;-72
2022/07/22 05:50:15;;;;;;;6.13;1.90;;;16.20;99.90;;;;;;5016998;28;20095;-72
2022/07/22 05:52:42;;;;;;;6.78;2.05;;;16.20;99.90;;;;;;5025778;28;20067;-72
2022/07/22 05:55:08;;;;;;;9.68;2.22;;;16.30;99.90;;;;;;5023884;28;20520;-72
2022/07/22 05:57:33;;;;;;;5.95;2.17;;;16.30;99.90;;;;;;5007753;28;20117;-72
2022/07/22 05:59:59;;;;;;;5.93;1.77;;;16.30;99.90;;;;;;5042530;28;20059;-73
2022/07/22 06:02:24;;;;;;;5.05;1.80;;;16.40;99.90;;;;;;5020697;28;20130;-72
2022/07/22 06:04:50;;;;;;;6.75;2.00;;;16.40;99.90;;;;;;5024992;28;20052;-73
2022/07/22 06:07:17;;;;;;;7.60;1.70;;;16.40;99.90;;;;;;5043474;28;20479;-72
2022/07/22 06:09:43;;;;;;;5.43;1.88;;;16.50;99.90;;;;;;5034411;28;20048;-73
2022/07/22 06:12:09;;;;;;;8.82;2.28;;;16.50;99.90;;;;;;5035692;28;20064;-72
2022/07/22 06:14:36;;;;;;;8.75;1.73;;;16.60;99.90;;;;;;5040963;28;20124;-73
2022/07/22 06:17:02;;;;;;;9.40;2.42;;;16.60;99.90;;;;;;5040199;28;20037;-71
2022/07/22 06:19:29;;;;;;;10.88;2.53;;;16.70;99.90;;;;;;5040777;28;20091;-73
2022/07/22 06:21:55;;;;;;;6.47;2.03;;;16.70;99.90;;;;;;5018233;28;20079;-73
2022/07/22 06:24:21;;;;;;;10.63;2.17;;;16.80;99.90;;;;;;5037930;28;20207;-73
2022/07/22 06:26:47;;;;;;;7.32;2.33;;;16.80;99.90;;;;;;5042795;28;20143;-72
2022/07/22 06:29:12;;;;;;;5.43;1.92;;;16.80;99.90;;;;;;5040744;28;20048;-73
2022/07/22 06:31:38;;;;;;;4.80;1.90;;;16.90;99.90;;;;;;5025796;28;20235;-73
2022/07/22 06:34:05;;;;;;;5.95;1.85;;;17.00;99.90;;;;;;5021372;28;20123;-73
2022/07/22 06:36:31;;;;;;;7.45;1.90;;;17.00;99.90;;;;;;5043713;28;20579;-72
2022/07/22 06:38:57;;;;;;;8.23;1.98;;;17.10;99.90;;;;;;5042874;28;20048;-73
2022/07/22 06:41:23;;;;;;;7.10;2.08;;;17.10;99.90;;;;;;5027441;28;20041;-73
2022/07/22 06:43:48;;;;;;;8.13;1.90;;;17.20;99.90;;;;;;5043438;28;20041;-74
2022/07/22 06:46:15;;;;;;;7.20;1.85;;;17.30;99.90;;;;;;5037005;28;20050;-73
2022/07/22 06:48:40;;;;;;;10.48;1.95;;;17.40;99.90;;;;;;5025822;28;20045;-73
2022/07/22 06:51:06;;;;;;;4.80;1.40;;;17.50;99.90;;;;;;5024533;28;20052;-73
2022/07/22 06:53:33;;;;;;;5.55;1.45;;;17.50;99.90;;;;;;5026000;28;20084;-73
2022/07/22 06:55:58;;;;;;;7.28;1.45;;;17.60;99.90;;;;;;5043781;28;20476;-73
2022/07/22 06:58:24;;;;;;;5.63;1.60;;;17.60;99.90;;;;;;5031221;28;20053;-73
2022/07/22 07:00:50;;;;;;;7.00;1.40;;;17.70;99.90;;;;;;5044025;28;20045;-73
2022/07/22 07:03:15;;;;;;;7.25;1.50;;;17.70;99.90;;;;;;5046891;28;20046;-74
2022/07/22 07:05:41;;;;;;;6.88;2.15;;;17.70;99.90;;;;;;5045115;28;20044;-73
2022/07/22 07:08:07;;;;;;;6.13;1.40;;;17.70;99.90;;;;;;5044146;28;20289;-73
2022/07/22 07:10:33;;;;;;;4.85;1.38;;;17.70;99.90;;;;;;5025420;28;20547;-73
2022/07/22 07:12:58;;;;;;;5.13;1.33;;;17.70;99.90;;;;;;5022727;28;20520;-73
2022/07/22 07:15:25;;;;;;;4.15;1.20;;;17.60;99.90;;;;;;5024244;28;20519;-74
2022/07/22 07:17:52;;;;;;;5.22;1.20;;;17.60;99.90;;;;;;5025294;28;20061;-73
2022/07/22 07:20:18;;;;;;;7.15;2.20;;;17.60;99.90;;;;;;5041559;28;20037;-73
2022/07/22 07:22:44;;;;;;;4.00;1.30;;;17.60;99.90;;;;;;5029809;28;20091;-72
2022/07/22 07:25:10;;;;;;;5.10;1.10;;;17.60;99.90;;;;;;5041729;28;20188;-71
2022/07/22 07:27:36;;;;;;;5.63;2.03;;;17.60;99.90;;;;;;5045201;28;20076;-72
2022/07/22 07:30:04;;;;;;;4.45;1.48;;;17.60;99.90;;;;;;5018544;28;20048;-71
2022/07/22 07:32:30;;;;;;;4.85;1.27;;;17.60;99.90;;;;;;5027328;28;20068;-73
2022/07/22 07:34:55;;;;;;;6.18;1.30;;;17.60;99.90;;;;;;5045483;28;20075;-72
2022/07/22 07:37:21;;;;;;;5.45;1.73;;;17.60;99.90;;;;;;5045451;28;20052;-72
2022/07/22 07:39:47;;;;;;;7.22;1.30;;;17.60;99.90;;;;;;5040451;28;20037;-72
2022/07/22 07:42:12;;;;;;;6.72;1.23;;;17.60;99.90;;;;;;5047834;28;20604;-72
2022/07/22 07:44:38;;;;;;;3.88;1.20;;;17.70;99.90;;;;;;5026656;28;20509;-72
2022/07/22 07:47:04;;;;;;;5.70;1.48;;;17.70;99.90;;;;;;5027378;28;20315;-72
2022/07/22 07:49:29;;;;;;;5.50;1.35;;;17.70;99.90;;;;;;5024909;28;20045;-73
2022/07/22 07:51:55;;;;;;;3.35;1.10;;;17.80;99.90;;;;;;5028071;28;20046;-72
2022/07/22 07:54:21;;;;;;;2.85;1.02;;;17.80;99.90;;;;;;5021454;28;20131;-73
2022/07/22 07:56:47;;;;;;;5.82;1.42;;;17.90;99.90;;;;;;5025738;28;20466;-72
2022/07/22 07:59:14;;;;;;;6.43;1.40;;;18.00;99.90;;;;;;5038388;28;20045;-72
2022/07/22 08:01:39;;;;;;;3.20;0.98;;;18.10;99.90;;;;;;5044632;28;20389;-72
2022/07/22 08:04:05;;;;;;;4.13;1.20;;;18.10;99.90;;;;;;5046777;28;20036;-72
2022/07/22 08:06:31;;;;;;;4.22;1.10;;;18.10;99.90;;;;;;5022800;28;20068;-73
2022/07/22 08:08:56;;;;;;;5.55;1.00;;;18.20;99.90;;;;;;5034038;28;20056;-72
2022/07/22 08:11:22;;;;;;;6.65;1.10;;;18.20;99.90;;;;;;5017602;28;20052;-72
2022/07/22 08:13:48;;;;;;;7.72;1.30;;;18.20;99.90;;;;;;5005899;28;20532;-72
2022/07/22 08:16:14;;;;;;;6.38;1.02;;;18.30;99.90;;;;;;5021622;28;20065;-72
2022/07/22 08:18:40;;;;;;;5.50;0.98;;;18.30;99.90;;;;;;5044321;28;20152;-73
2022/07/22 08:21:06;;;;;;;2.58;0.93;;;18.30;99.90;;;;;;5045921;28;20065;-72
2022/07/22 08:23:32;;;;;;;3.30;1.00;;;18.30;99.90;;;;;;5041542;28;20053;-72
2022/07/22 08:25:58;;;;;;;3.83;1.00;;;18.40;99.90;;;;;;5047970;28;20056;-72
2022/07/22 08:28:24;;;;;;;4.55;1.10;;;18.50;99.90;;;;;;5042901;28;22024;-72
2022/07/22 08:30:50;;;;;;;4.88;1.05;;;18.60;99.90;;;;;;5036776;28;20087;-72
2022/07/22 08:33:16;;;;;;;2.42;1.02;;;18.70;99.90;;;;;;5047313;28;20050;-72
2022/07/22 08:35:42;;;;;;;10.73;1.27;;;18.70;99.90;;;;;;5036405;28;20877;-72
2022/07/22 08:38:07;;;;;;;4.70;0.80;;;18.80;99.90;;;;;;5020010;28;20037;-72
2022/07/22 08:40:33;;;;;;;3.80;0.80;;;18.80;99.90;;;;;;5029891;28;20098;-72
2022/07/22 08:43:02;;;;;;;2.03;0.80;;;18.80;99.90;;;;;;5019854;28;20045;-72
2022/07/22 08:45:32;;;;;;;2.95;0.88;;;18.90;99.90;;;;;;5012486;28;20434;-72
2022/07/22 08:47:59;;;;;;;3.03;1.10;;;18.90;99.90;;;;;;5022017;28;20045;-73
2022/07/22 08:50:25;;;;;;;1.83;0.93;;;18.90;99.90;;;;;;5021578;28;20088;-72
2022/07/22 08:52:50;;;;;;;3.67;0.90;;;18.90;99.90;;;;;;5018070;28;20049;-72
2022/07/22 08:55:17;;;;;;;2.30;0.90;;;18.90;99.90;;;;;;5021652;28;20064;-73
2022/07/22 08:57:47;;;;;;;5.00;0.95;;;18.80;99.90;;;;;;5023110;28;20597;-73
2022/07/22 09:00:18;;;;;;;2.90;0.93;;;18.80;99.90;;;;;;5014411;28;20038;-74
2022/07/22 09:02:45;;;;;;;3.78;0.90;;;18.70;99.90;;;;;;5024192;28;20119;-74
2022/07/22 09:05:16;;;;;;;4.68;1.05;;;18.60;99.90;;;;;;5012937;28;20502;-74
2022/07/22 09:07:43;;;;;;;3.30;0.93;;;18.50;99.90;;;;;;5015286;28;20490;-75
2022/07/22 09:10:12;;;;;;;2.35;0.90;;;18.40;99.90;;;;;;5020643;28;20056;-74
2022/07/22 09:12:54;;;;;;;3.08;0.75;;;18.30;99.90;;;;;;5013922;28;20040;-73
2022/07/22 09:15:30;;;;;;;2.67;0.75;;;18.30;99.90;;;;;;5017958;28;20049;-73
2022/07/22 09:17:59;;;;;;;2.30;0.70;;;18.30;99.90;;;;;;5019848;28;20050;-73
2022/07/22 09:20:26;;;;;;;1.92;0.80;;;18.30;99.90;;;;;;5015002;28;20515;-73
2022/07/22 09:22:52;;;;;;;3.67;1.05;;;18.40;99.90;;;;;;5019623;28;20055;-73
2022/07/22 09:25:20;;;;;;;2.97;0.70;;;18.40;99.90;;;;;;5012492;28;20076;-73
2022/07/22 09:27:47;;;;;;;6.25;1.38;;;18.50;99.90;;;;;;5020302;28;20448;-73
2022/07/22 09:30:20;;;;;;;2.72;0.93;;;18.50;99.90;;;;;;5017982;28;20045;-72
2022/07/22 09:32:46;;;;;;;5.60;1.05;;;18.60;99.90;;;;;;5022381;28;20045;-72
2022/07/22 09:35:13;;;;;;;3.80;0.85;;;18.60;99.90;;;;;;5022023;28;20037;-73
2022/07/22 09:37:56;;;;;;;4.82;1.02;;;18.70;99.90;;;;;;5016886;28;20553;-73
2022/07/22 09:40:27;;;;;;;3.53;0.80;;;18.70;99.90;;;;;;5014744;28;20053;-73
2022/07/22 09:43:01;;;;;;;4.47;1.00;;;18.70;99.90;;;;;;5018950;28;20043;-72
2022/07/22 09:45:28;;;;;;;3.42;0.88;;;18.70;99.90;;;;;;5025224;28;20038;-72
2022/07/22 09:47:59;;;;;;;4.82;1.00;;;18.70;99.90;;;;;;5024756;28;20041;-73
2022/07/22 09:50:33;;;;;;;2.45;0.90;;;18.70;99.90;;;;;;5025099;28;20072;-74
2022/07/22 09:52:59;;;;;;;2.70;0.90;;;18.70;99.90;;;;;;5025289;28;20052;-74
2022/07/22 09:55:27;;;;;;;4.88;1.00;;;18.70;99.90;;;;;;5016655;28;20033;-74
2022/07/22 09:57:54;;;;;;;5.30;1.35;;;18.80;99.90;;;;;;5025151;28;20049;-75
2022/07/22 10:00:23;;;;;;;5.25;1.20;;;18.90;99.90;;;;;;5018461;28;20045;-73
2022/07/22 10:02:50;;;;;;;2.50;0.70;;;19.10;99.90;;;;;;5022887;28;20183;-73
2022/07/22 10:05:19;;;;;;;2.75;0.98;;;19.20;99.90;;;;;;5021648;28;20046;-73
2022/07/22 10:07:46;;;;;;;5.03;1.02;;;19.40;99.90;;;;;;5027456;28;20548;-73
2022/07/22 10:10:14;;;;;;;7.45;1.10;;;19.60;99.90;;;;;;5025671;28;20037;-73
2022/07/22 10:12:41;;;;;;;2.40;0.90;;;19.80;99.90;;;;;;5018297;28;20041;-73
2022/07/22 10:15:08;;;;;;;4.07;0.90;;;20.00;99.90;;;;;;5018234;28;20046;-72
2022/07/22 10:17:40;;;;;;;3.75;0.98;;;20.10;99.90;;;;;;5020135;28;20522;-72
2022/07/22 10:20:08;;;;;;;3.67;1.00;;;20.40;99.90;;;;;;5024425;28;20413;-73
2022/07/22 10:22:40;;;;;;;2.88;1.08;;;20.80;99.90;;;;;;5023657;28;20034;-73
2022/07/22 10:25:07;;;;;;;3.75;1.27;;;21.10;99.90;;;;;;5024372;28;20053;-72
2022/07/22 10:27:46;;;;;;;2.17;0.93;;;21.20;99.90;;;;;;5024902;28;20049;-74
2022/07/22 10:30:14;;;;;;;3.67;0.93;;;21.30;99.90;;;;;;5020002;28;20038;-73
2022/07/22 10:32:39;;;;;;;4.38;1.00;;;21.40;99.90;;;;;;5024092;28;20038;-73
2022/07/22 10:35:11;;;;;;;3.53;0.70;;;21.40;99.90;;;;;;5025091;28;20052;-72
2022/07/22 10:37:43;;;;;;;4.20;1.05;;;21.40;99.90;;;;;;5018453;28;20050;-73
2022/07/22 10:40:11;;;;;;;6.13;1.30;;;21.50;99.90;;;;;;5012032;28;20096;-71
2022/07/22 10:43:03;;;;;;;3.35;0.80;;;21.50;99.90;;;;;;5019393;28;20091;-72
2022/07/22 10:45:47;;;;;;;3.22;0.75;;;21.50;99.90;;;;;;5017868;28;20050;-71
2022/07/22 10:48:16;;;;;;;3.00;1.00;;;21.50;99.90;;;;;;5020465;28;20069;-71
2022/07/22 10:50:44;;;;;;;5.18;1.00;;;21.40;99.90;;;;;;5023796;28;20048;-72
2022/07/22 10:53:16;;;;;;;2.83;0.70;;;21.40;99.90;;;;;;5024508;28;20033;-71
2022/07/22 10:56:06;;;;;;;2.45;0.77;;;21.30;99.90;;;;;;5026927;28;20508;-72
2022/07/22 10:58:32;;;;;;;3.67;0.88;;;21.30;99.90;;;;;;5019273;28;20184;-72
2022/07/22 11:01:01;;;;;;;3.58;0.75;;;21.20;99.90;;;;;;5022246;28;20541;-73
2022/07/22 11:03:29;;;;;;;3.60;0.80;;;21.20;99.90;;;;;;5021926;28;20049;-73
2022/07/22 11:05:56;;;;;;;3.05;0.98;;;21.20;99.90;;;;;;5022805;28;20038;-73
2022/07/22 11:08:22;;;;;;;2.35;0.75;;;21.20;99.90;;;;;;5023968;28;20037;-73
2022/07/22 11:10:49;;;;;;;2.28;0.98;;;21.10;99.90;;;;;;5023952;28;20576;-73
2022/07/22 11:13:35;;;;;;;2.90;0.93;;;21.00;99.90;;;;;;5019708;28;20042;-73
2022/07/22 11:16:18;;;;;;;4.05;1.30;;;20.90;99.90;;;;;;5023845;28;20046;-73
2022/07/22 11:19:04;;;;;;;4.85;0.90;;;20.80;99.90;;;;;;5012900;28;20045;-73
2022/07/22 11:21:33;;;;;;;1.85;0.82;;;20.80;99.90;;;;;;5014916;28;20080;-73
2022/07/22 11:24:02;;;;;;;2.78;0.80;;;20.80;99.90;;;;;;5025098;28;20052;-73
2022/07/22 11:26:43;;;;;;;3.58;1.00;;;20.90;99.90;;;;;;5024791;28;20045;-73
2022/07/22 11:29:14;;;;;;;3.00;1.10;;;20.80;99.90;;;;;;5022724;28;20065;-72
2022/07/22 11:31:40;;;;;;;3.05;1.00;;;20.80;99.90;;;;;;5025446;28;20042;-74
2022/07/22 11:34:10;;;;;;;3.40;0.80;;;20.80;99.90;;;;;;5016688;28;20520;-72
2022/07/22 11:36:39;;;;;;;3.45;1.00;;;20.80;99.90;;;;;;5021867;28;20038;-73
2022/07/22 11:39:06;;;;;;;2.85;0.90;;;20.80;99.90;;;;;;5014107;28;20034;-72
2022/07/22 11:41:32;;;;;;;3.33;1.00;;;20.90;99.90;;;;;;5024068;28;20528;-73
2022/07/22 11:43:59;;;;;;;3.00;0.90;;;20.90;99.90;;;;;;5022559;28;20069;-73
2022/07/22 11:46:25;;;;;;;3.80;1.00;;;21.00;99.90;;;;;;5022832;28;20042;-73
2022/07/22 11:48:52;;;;;;;3.58;1.35;;;21.00;99.90;;;;;;5029683;28;20447;-73
2022/07/22 11:51:18;;;;;;;6.00;1.30;;;21.10;99.90;;;;;;5027301;28;20042;-73
2022/07/22 11:53:44;;;;;;;4.28;1.00;;;21.00;99.90;;;;;;5024935;28;20100;-73
2022/07/22 11:56:10;;;;;;;4.57;1.20;;;20.90;99.90;;;;;;5019491;28;20556;-73
2022/07/22 11:58:47;;;;;;;3.58;0.98;;;20.90;99.90;;;;;;5022848;28;20048;-73
2022/07/22 12:01:16;;;;;;;4.63;1.27;;;20.90;99.90;;;;;;5023179;28;20109;-73
2022/07/22 12:03:53;;;;;;;4.68;1.10;;;20.80;99.90;;;;;;5028323;28;20069;-73
2022/07/22 12:06:21;;;;;;;3.97;1.10;;;20.70;99.90;;;;;;5025576;28;20429;-73
2022/07/22 12:08:54;;;;;;;8.02;2.58;;;20.70;99.90;;;;;;5026417;28;20042;-73
2022/07/22 12:11:22;;;;;;;5.05;1.33;;;20.60;99.90;;;;;;5029773;28;20504;-73
2022/07/22 12:13:50;;;;;;;4.45;1.30;;;20.60;99.90;;;;;;5021631;28;20045;-73
2022/07/22 12:16:27;;;;;;;5.72;1.08;;;20.60;99.90;;;;;;5022945;28;20064;-73
2022/07/22 12:19:00;;;;;;;3.13;1.13;;;20.60;99.90;;;;;;5028016;28;20045;-73
2022/07/22 12:21:28;;;;;;;3.25;1.02;;;20.60;99.90;;;;;;5023346;28;20049;-73
2022/07/22 12:23:57;;;;;;;4.47;1.40;;;20.50;99.90;;;;;;5027519;28;20080;-73
2022/07/22 12:26:43;;;;;;;2.58;1.00;;;20.50;99.90;;;;;;5025950;28;20045;-73
2022/07/22 12:29:20;;;;;;;4.05;1.10;;;20.40;99.90;;;;;;5022346;28;20064;-73
2022/07/22 12:31:52;;;;;;;4.72;1.13;;;20.30;99.90;;;;;;5026632;28;20534;-73
2022/07/22 12:34:31;;;;;;;2.30;0.95;;;20.20;99.90;;;;;;5026411;28;20076;-73
2022/07/22 12:36:56;;;;;;;4.03;1.20;;;20.10;99.90;;;;;;5025976;28;20073;-73
2022/07/22 12:39:22;;;;;;;5.57;1.20;;;20.00;99.90;;;;;;5024997;28;20065;-73
2022/07/22 12:41:53;;;;;;;5.15;1.30;;;19.90;99.90;;;;;;5022581;28;20046;-73
2022/07/22 12:44:26;;;;;;;4.55;1.20;;;19.80;99.90;;;;;;5022929;28;20053;-73
2022/07/22 12:46:55;;;;;;;6.22;1.35;;;19.70;99.90;;;;;;5019602;28;20057;-73